Escuintla, Guatemala
Current Conditions -  °F | °C
As of 4:00 AM on Friday 24 Oct 2014 (Local Time) from MGGT Reporting Station
Broken Clouds Broken Clouds  
Wind Chill: 64°   Ceiling: 1500
Heat Index: 64°   Visibility: 6mi
Dew Point: 63°   Wind: 7mph
Humidity: 94%   Direction: 20°NNE
Pressure: 30.18"   Gusts: NA
Location:  14.18°N, 90.47°W
Report Text: MGGT 241000Z 02006KT 9999 BKN015 SCT080 18/17 Q1022 A3018
Loading
Personal Weather Stations






























Interactive Weather Map
Tropical Storm Tracking
New forecast layout! Learn more

10-Day Weather Forecast

Advertisements
Track Severe Weather on mobile